sensor_id;sensor_type;location;lat;lon;timestamp;P1;durP1;ratioP1;P2;durP2;ratioP2
58412;SDS011;44209;52.952;6.790;2023-12-04T00:01:49;44.13;;;26.37;;
58412;SDS011;44209;52.952;6.790;2023-12-04T00:04:15;47.70;;;27.27;;
58412;SDS011;44209;52.952;6.790;2023-12-04T00:06:41;45.00;;;26.33;;
58412;SDS011;44209;52.952;6.790;2023-12-04T00:09:07;45.47;;;25.97;;
58412;SDS011;44209;52.952;6.790;2023-12-04T00:11:33;44.87;;;27.10;;
58412;SDS011;44209;52.952;6.790;2023-12-04T00:13:59;40.90;;;25.47;;
58412;SDS011;44209;52.952;6.790;2023-12-04T00:16:25;45.40;;;27.10;;
58412;SDS011;44209;52.952;6.790;2023-12-04T00:18:51;45.03;;;26.33;;
58412;SDS011;44209;52.952;6.790;2023-12-04T00:21:17;41.90;;;25.60;;
58412;SDS011;44209;52.952;6.790;2023-12-04T00:23:42;41.53;;;25.10;;
58412;SDS011;44209;52.952;6.790;2023-12-04T00:26:08;41.73;;;26.13;;
58412;SDS011;44209;52.952;6.790;2023-12-04T00:28:37;44.40;;;25.63;;
58412;SDS011;44209;52.952;6.790;2023-12-04T00:31:03;43.17;;;23.83;;
58412;SDS011;44209;52.952;6.790;2023-12-04T00:33:29;45.87;;;26.03;;
58412;SDS011;44209;52.952;6.790;2023-12-04T00:35:54;42.87;;;25.03;;
58412;SDS011;44209;52.952;6.790;2023-12-04T00:38:21;42.53;;;25.13;;
58412;SDS011;44209;52.952;6.790;2023-12-04T00:40:47;45.57;;;26.13;;
58412;SDS011;44209;52.952;6.790;2023-12-04T00:43:13;43.57;;;24.83;;
58412;SDS011;44209;52.952;6.790;2023-12-04T00:45:39;44.57;;;25.87;;
58412;SDS011;44209;52.952;6.790;2023-12-04T00:48:04;43.93;;;25.03;;
58412;SDS011;44209;52.952;6.790;2023-12-04T00:50:30;44.20;;;25.53;;
58412;SDS011;44209;52.952;6.790;2023-12-04T00:52:56;40.70;;;23.73;;
58412;SDS011;44209;52.952;6.790;2023-12-04T00:55:22;41.13;;;22.73;;
58412;SDS011;44209;52.952;6.790;2023-12-04T00:57:47;45.70;;;25.20;;
58412;SDS011;44209;52.952;6.790;2023-12-04T01:00:13;46.60;;;25.40;;
58412;SDS011;44209;52.952;6.790;2023-12-04T01:02:39;43.53;;;25.67;;
58412;SDS011;44209;52.952;6.790;2023-12-04T01:05:05;42.57;;;25.17;;
58412;SDS011;44209;52.952;6.790;2023-12-04T01:07:31;41.40;;;24.53;;
58412;SDS011;44209;52.952;6.790;2023-12-04T01:09:57;39.57;;;23.83;;
58412;SDS011;44209;52.952;6.790;2023-12-04T01:12:22;41.00;;;24.30;;
58412;SDS011;44209;52.952;6.790;2023-12-04T01:14:48;39.67;;;23.10;;
58412;SDS011;44209;52.952;6.790;2023-12-04T01:17:14;40.30;;;24.00;;
58412;SDS011;44209;52.952;6.790;2023-12-04T01:19:40;42.67;;;26.10;;
58412;SDS011;44209;52.952;6.790;2023-12-04T01:22:05;47.37;;;25.70;;
58412;SDS011;44209;52.952;6.790;2023-12-04T01:24:31;43.93;;;24.33;;
58412;SDS011;44209;52.952;6.790;2023-12-04T01:26:57;38.67;;;23.27;;
58412;SDS011;44209;52.952;6.790;2023-12-04T01:29:22;42.50;;;24.83;;
58412;SDS011;44209;52.952;6.790;2023-12-04T01:31:48;42.60;;;24.50;;
58412;SDS011;44209;52.952;6.790;2023-12-04T01:34:13;46.33;;;25.97;;
58412;SDS011;44209;52.952;6.790;2023-12-04T01:36:40;41.00;;;24.10;;
58412;SDS011;44209;52.952;6.790;2023-12-04T01:39:06;42.40;;;24.70;;
58412;SDS011;44209;52.952;6.790;2023-12-04T01:41:32;44.07;;;25.07;;
58412;SDS011;44209;52.952;6.790;2023-12-04T01:43:57;41.10;;;24.73;;
58412;SDS011;44209;52.952;6.790;2023-12-04T01:46:23;39.43;;;24.07;;
58412;SDS011;44209;52.952;6.790;2023-12-04T01:48:49;43.93;;;25.17;;
58412;SDS011;44209;52.952;6.790;2023-12-04T01:51:15;41.37;;;24.80;;
58412;SDS011;44209;52.952;6.790;2023-12-04T01:53:43;41.70;;;24.47;;
58412;SDS011;44209;52.952;6.790;2023-12-04T01:56:09;39.70;;;23.23;;
58412;SDS011;44209;52.952;6.790;2023-12-04T01:58:36;40.77;;;23.13;;
58412;SDS011;44209;52.952;6.790;2023-12-04T02:01:02;40.47;;;25.00;;
58412;SDS011;44209;52.952;6.790;2023-12-04T02:03:29;44.30;;;23.77;;
58412;SDS011;44209;52.952;6.790;2023-12-04T02:05:55;39.97;;;23.87;;
58412;SDS011;44209;52.952;6.790;2023-12-04T02:08:24;39.07;;;23.53;;
58412;SDS011;44209;52.952;6.790;2023-12-04T02:10:51;40.37;;;23.60;;
58412;SDS011;44209;52.952;6.790;2023-12-04T02:13:16;40.93;;;24.77;;
58412;SDS011;44209;52.952;6.790;2023-12-04T02:15:42;40.53;;;23.10;;
58412;SDS011;44209;52.952;6.790;2023-12-04T02:18:09;41.10;;;24.37;;
58412;SDS011;44209;52.952;6.790;2023-12-04T02:20:35;44.30;;;24.43;;
58412;SDS011;44209;52.952;6.790;2023-12-04T02:23:01;43.23;;;24.70;;
58412;SDS011;44209;52.952;6.790;2023-12-04T02:25:28;37.83;;;23.10;;
58412;SDS011;44209;52.952;6.790;2023-12-04T02:27:59;40.50;;;23.57;;
58412;SDS011;44209;52.952;6.790;2023-12-04T02:30:26;39.53;;;23.70;;
58412;SDS011;44209;52.952;6.790;2023-12-04T02:32:55;43.37;;;24.70;;
58412;SDS011;44209;52.952;6.790;2023-12-04T02:35:23;43.07;;;24.93;;
58412;SDS011;44209;52.952;6.790;2023-12-04T02:37:52;40.67;;;23.37;;
58412;SDS011;44209;52.952;6.790;2023-12-04T02:40:19;42.77;;;23.77;;
58412;SDS011;44209;52.952;6.790;2023-12-04T02:42:45;41.93;;;24.83;;
58412;SDS011;44209;52.952;6.790;2023-12-04T02:45:11;37.63;;;22.37;;
58412;SDS011;44209;52.952;6.790;2023-12-04T02:47:36;40.20;;;22.17;;
58412;SDS011;44209;52.952;6.790;2023-12-04T02:50:02;36.70;;;23.23;;
58412;SDS011;44209;52.952;6.790;2023-12-04T02:52:28;36.90;;;22.50;;
58412;SDS011;44209;52.952;6.790;2023-12-04T02:54:54;39.37;;;23.97;;
58412;SDS011;44209;52.952;6.790;2023-12-04T02:57:20;39.07;;;23.00;;
58412;SDS011;44209;52.952;6.790;2023-12-04T02:59:46;37.70;;;22.63;;
58412;SDS011;44209;52.952;6.790;2023-12-04T03:02:13;37.67;;;21.60;;
58412;SDS011;44209;52.952;6.790;2023-12-04T03:04:39;38.13;;;23.73;;
58412;SDS011;44209;52.952;6.790;2023-12-04T03:07:04;40.30;;;22.83;;
58412;SDS011;44209;52.952;6.790;2023-12-04T03:09:30;39.43;;;22.43;;
58412;SDS011;44209;52.952;6.790;2023-12-04T03:11:56;36.70;;;21.23;;
58412;SDS011;44209;52.952;6.790;2023-12-04T03:14:21;37.33;;;21.87;;
58412;SDS011;44209;52.952;6.790;2023-12-04T03:16:47;39.10;;;22.97;;
58412;SDS011;44209;52.952;6.790;2023-12-04T03:19:13;35.57;;;20.63;;
58412;SDS011;44209;52.952;6.790;2023-12-04T03:21:38;37.43;;;21.77;;
58412;SDS011;44209;52.952;6.790;2023-12-04T03:24:04;35.10;;;20.70;;
58412;SDS011;44209;52.952;6.790;2023-12-04T03:26:30;33.80;;;21.20;;
58412;SDS011;44209;52.952;6.790;2023-12-04T03:28:55;37.70;;;21.90;;
58412;SDS011;44209;52.952;6.790;2023-12-04T03:31:21;36.87;;;21.57;;
58412;SDS011;44209;52.952;6.790;2023-12-04T03:33:48;36.03;;;21.17;;
58412;SDS011;44209;52.952;6.790;2023-12-04T03:36:13;36.13;;;21.57;;
58412;SDS011;44209;52.952;6.790;2023-12-04T03:38:39;36.27;;;21.90;;
58412;SDS011;44209;52.952;6.790;2023-12-04T03:41:05;39.10;;;22.77;;
58412;SDS011;44209;52.952;6.790;2023-12-04T03:43:38;36.23;;;22.10;;
58412;SDS011;44209;52.952;6.790;2023-12-04T03:46:03;34.20;;;21.33;;
58412;SDS011;44209;52.952;6.790;2023-12-04T03:48:29;36.63;;;21.80;;
58412;SDS011;44209;52.952;6.790;2023-12-04T03:50:55;36.97;;;21.67;;
58412;SDS011;44209;52.952;6.790;2023-12-04T03:53:21;37.20;;;21.63;;
58412;SDS011;44209;52.952;6.790;2023-12-04T03:55:46;33.07;;;20.40;;
58412;SDS011;44209;52.952;6.790;2023-12-04T03:58:12;35.17;;;21.57;;
58412;SDS011;44209;52.952;6.790;2023-12-04T04:00:38;34.40;;;20.83;;
58412;SDS011;44209;52.952;6.790;2023-12-04T04:03:06;35.03;;;21.20;;
58412;SDS011;44209;52.952;6.790;2023-12-04T04:05:33;39.70;;;21.37;;
58412;SDS011;44209;52.952;6.790;2023-12-04T04:07:59;34.33;;;21.27;;
58412;SDS011;44209;52.952;6.790;2023-12-04T04:10:25;39.50;;;21.73;;
58412;SDS011;44209;52.952;6.790;2023-12-04T04:12:51;36.03;;;21.63;;
58412;SDS011;44209;52.952;6.790;2023-12-04T04:15:16;34.73;;;21.67;;
58412;SDS011;44209;52.952;6.790;2023-12-04T04:17:42;37.87;;;22.77;;
58412;SDS011;44209;52.952;6.790;2023-12-04T04:20:08;35.57;;;21.57;;
58412;SDS011;44209;52.952;6.790;2023-12-04T04:22:35;36.50;;;21.93;;
58412;SDS011;44209;52.952;6.790;2023-12-04T04:25:04;33.77;;;20.87;;
58412;SDS011;44209;52.952;6.790;2023-12-04T04:27:31;36.47;;;21.43;;
58412;SDS011;44209;52.952;6.790;2023-12-04T04:29:56;35.00;;;21.57;;
58412;SDS011;44209;52.952;6.790;2023-12-04T04:32:22;33.90;;;21.03;;
58412;SDS011;44209;52.952;6.790;2023-12-04T04:34:48;38.27;;;21.97;;
58412;SDS011;44209;52.952;6.790;2023-12-04T04:37:13;35.03;;;21.77;;
58412;SDS011;44209;52.952;6.790;2023-12-04T04:39:39;37.40;;;22.03;;
58412;SDS011;44209;52.952;6.790;2023-12-04T04:42:05;41.20;;;23.07;;
58412;SDS011;44209;52.952;6.790;2023-12-04T04:44:31;38.33;;;21.40;;
58412;SDS011;44209;52.952;6.790;2023-12-04T04:46:56;35.57;;;21.53;;
58412;SDS011;44209;52.952;6.790;2023-12-04T04:49:22;36.50;;;21.97;;
58412;SDS011;44209;52.952;6.790;2023-12-04T04:51:48;37.20;;;21.60;;
58412;SDS011;44209;52.952;6.790;2023-12-04T04:54:13;37.03;;;22.13;;
58412;SDS011;44209;52.952;6.790;2023-12-04T04:56:39;39.23;;;22.20;;
58412;SDS011;44209;52.952;6.790;2023-12-04T04:59:05;37.97;;;21.03;;
58412;SDS011;44209;52.952;6.790;2023-12-04T05:01:30;36.13;;;21.60;;
58412;SDS011;44209;52.952;6.790;2023-12-04T05:03:56;36.73;;;21.30;;
58412;SDS011;44209;52.952;6.790;2023-12-04T05:06:22;36.97;;;20.60;;
58412;SDS011;44209;52.952;6.790;2023-12-04T05:08:48;35.93;;;21.13;;
58412;SDS011;44209;52.952;6.790;2023-12-04T05:11:17;34.23;;;21.47;;
58412;SDS011;44209;52.952;6.790;2023-12-04T05:13:44;34.53;;;20.80;;
58412;SDS011;44209;52.952;6.790;2023-12-04T05:16:10;33.40;;;21.17;;
58412;SDS011;44209;52.952;6.790;2023-12-04T05:18:36;32.80;;;20.63;;
58412;SDS011;44209;52.952;6.790;2023-12-04T05:21:03;30.33;;;20.17;;
58412;SDS011;44209;52.952;6.790;2023-12-04T05:23:33;32.67;;;20.00;;
58412;SDS011;44209;52.952;6.790;2023-12-04T05:25:59;35.00;;;20.57;;
58412;SDS011;44209;52.952;6.790;2023-12-04T05:28:25;33.13;;;19.63;;
58412;SDS011;44209;52.952;6.790;2023-12-04T05:30:50;35.60;;;20.57;;
58412;SDS011;44209;52.952;6.790;2023-12-04T05:33:16;30.50;;;19.70;;
58412;SDS011;44209;52.952;6.790;2023-12-04T05:35:42;32.47;;;19.80;;
58412;SDS011;44209;52.952;6.790;2023-12-04T05:38:07;30.60;;;19.60;;
58412;SDS011;44209;52.952;6.790;2023-12-04T05:40:33;33.63;;;19.57;;
58412;SDS011;44209;52.952;6.790;2023-12-04T05:42:59;31.90;;;19.40;;
58412;SDS011;44209;52.952;6.790;2023-12-04T05:45:25;31.37;;;19.33;;
58412;SDS011;44209;52.952;6.790;2023-12-04T05:47:50;32.33;;;20.73;;
58412;SDS011;44209;52.952;6.790;2023-12-04T05:50:17;32.00;;;18.93;;
58412;SDS011;44209;52.952;6.790;2023-12-04T05:52:43;28.93;;;18.97;;
58412;SDS011;44209;52.952;6.790;2023-12-04T05:55:10;32.47;;;18.53;;
58412;SDS011;44209;52.952;6.790;2023-12-04T05:57:37;32.67;;;20.00;;
58412;SDS011;44209;52.952;6.790;2023-12-04T06:00:04;33.50;;;19.33;;
58412;SDS011;44209;52.952;6.790;2023-12-04T06:02:37;31.13;;;19.47;;
58412;SDS011;44209;52.952;6.790;2023-12-04T06:05:11;33.77;;;20.70;;
58412;SDS011;44209;52.952;6.790;2023-12-04T06:07:37;34.03;;;19.60;;
58412;SDS011;44209;52.952;6.790;2023-12-04T06:10:03;33.93;;;19.70;;
58412;SDS011;44209;52.952;6.790;2023-12-04T06:12:29;30.63;;;18.73;;
58412;SDS011;44209;52.952;6.790;2023-12-04T06:14:55;31.70;;;19.27;;
58412;SDS011;44209;52.952;6.790;2023-12-04T06:17:21;33.23;;;20.33;;
58412;SDS011;44209;52.952;6.790;2023-12-04T06:19:47;29.20;;;18.73;;
58412;SDS011;44209;52.952;6.790;2023-12-04T06:22:12;33.03;;;20.40;;
58412;SDS011;44209;52.952;6.790;2023-12-04T06:24:39;35.50;;;20.63;;
58412;SDS011;44209;52.952;6.790;2023-12-04T06:27:06;33.90;;;20.53;;
58412;SDS011;44209;52.952;6.790;2023-12-04T06:29:34;29.37;;;18.70;;
58412;SDS011;44209;52.952;6.790;2023-12-04T06:32:00;34.23;;;20.63;;
58412;SDS011;44209;52.952;6.790;2023-12-04T06:34:26;33.03;;;20.07;;
58412;SDS011;44209;52.952;6.790;2023-12-04T06:36:52;31.57;;;19.80;;
58412;SDS011;44209;52.952;6.790;2023-12-04T06:39:20;30.77;;;18.37;;
58412;SDS011;44209;52.952;6.790;2023-12-04T06:41:45;32.63;;;19.47;;
58412;SDS011;44209;52.952;6.790;2023-12-04T06:44:13;31.30;;;18.50;;
58412;SDS011;44209;52.952;6.790;2023-12-04T06:46:39;31.27;;;19.10;;
58412;SDS011;44209;52.952;6.790;2023-12-04T06:49:07;32.77;;;18.30;;
58412;SDS011;44209;52.952;6.790;2023-12-04T06:51:36;28.70;;;18.37;;
58412;SDS011;44209;52.952;6.790;2023-12-04T06:54:02;27.43;;;17.37;;
58412;SDS011;44209;52.952;6.790;2023-12-04T06:56:28;30.43;;;18.57;;
58412;SDS011;44209;52.952;6.790;2023-12-04T06:58:54;29.10;;;17.53;;
58412;SDS011;44209;52.952;6.790;2023-12-04T07:01:19;28.57;;;17.47;;
58412;SDS011;44209;52.952;6.790;2023-12-04T07:03:46;29.07;;;17.63;;
58412;SDS011;44209;52.952;6.790;2023-12-04T07:06:12;26.73;;;16.70;;
58412;SDS011;44209;52.952;6.790;2023-12-04T07:08:39;28.20;;;17.80;;
58412;SDS011;44209;52.952;6.790;2023-12-04T07:11:06;27.87;;;17.63;;
58412;SDS011;44209;52.952;6.790;2023-12-04T07:13:33;26.63;;;17.17;;
58412;SDS011;44209;52.952;6.790;2023-12-04T07:15:59;28.90;;;16.87;;
58412;SDS011;44209;52.952;6.790;2023-12-04T07:18:25;26.47;;;16.97;;
58412;SDS011;44209;52.952;6.790;2023-12-04T07:20:51;28.53;;;17.20;;
58412;SDS011;44209;52.952;6.790;2023-12-04T07:23:17;26.80;;;17.00;;
58412;SDS011;44209;52.952;6.790;2023-12-04T07:25:42;26.73;;;16.97;;
58412;SDS011;44209;52.952;6.790;2023-12-04T07:28:08;29.63;;;17.37;;
58412;SDS011;44209;52.952;6.790;2023-12-04T07:30:34;26.43;;;16.57;;
58412;SDS011;44209;52.952;6.790;2023-12-04T07:32:59;26.23;;;16.53;;
58412;SDS011;44209;52.952;6.790;2023-12-04T07:35:25;26.50;;;16.37;;
58412;SDS011;44209;52.952;6.790;2023-12-04T07:37:51;27.70;;;16.53;;
58412;SDS011;44209;52.952;6.790;2023-12-04T07:40:17;24.57;;;16.27;;
58412;SDS011;44209;52.952;6.790;2023-12-04T07:42:43;26.40;;;15.87;;
58412;SDS011;44209;52.952;6.790;2023-12-04T07:45:09;26.13;;;16.40;;
58412;SDS011;44209;52.952;6.790;2023-12-04T07:47:36;26.67;;;16.43;;
58412;SDS011;44209;52.952;6.790;2023-12-04T07:50:01;24.27;;;15.70;;
58412;SDS011;44209;52.952;6.790;2023-12-04T07:52:27;28.13;;;16.03;;
58412;SDS011;44209;52.952;6.790;2023-12-04T07:54:53;26.20;;;15.87;;
58412;SDS011;44209;52.952;6.790;2023-12-04T07:57:19;22.03;;;14.50;;
58412;SDS011;44209;52.952;6.790;2023-12-04T07:59:44;23.10;;;15.13;;
58412;SDS011;44209;52.952;6.790;2023-12-04T08:02:10;22.00;;;14.67;;
58412;SDS011;44209;52.952;6.790;2023-12-04T08:04:36;24.27;;;15.50;;
58412;SDS011;44209;52.952;6.790;2023-12-04T08:07:01;23.17;;;14.63;;
58412;SDS011;44209;52.952;6.790;2023-12-04T08:09:27;24.93;;;14.90;;
58412;SDS011;44209;52.952;6.790;2023-12-04T08:11:53;22.10;;;14.37;;
58412;SDS011;44209;52.952;6.790;2023-12-04T08:14:18;22.70;;;14.70;;
58412;SDS011;44209;52.952;6.790;2023-12-04T08:16:44;22.53;;;14.90;;
58412;SDS011;44209;52.952;6.790;2023-12-04T08:19:10;21.57;;;13.97;;
58412;SDS011;44209;52.952;6.790;2023-12-04T08:21:35;22.20;;;14.53;;
58412;SDS011;44209;52.952;6.790;2023-12-04T08:24:01;22.07;;;13.80;;
58412;SDS011;44209;52.952;6.790;2023-12-04T08:26:27;23.20;;;14.97;;
58412;SDS011;44209;52.952;6.790;2023-12-04T08:28:52;23.00;;;14.30;;
58412;SDS011;44209;52.952;6.790;2023-12-04T08:31:18;21.00;;;14.00;;
58412;SDS011;44209;52.952;6.790;2023-12-04T08:33:44;25.90;;;17.37;;
58412;SDS011;44209;52.952;6.790;2023-12-04T08:36:12;21.47;;;12.97;;
58412;SDS011;44209;52.952;6.790;2023-12-04T08:38:38;21.00;;;13.70;;
58412;SDS011;44209;52.952;6.790;2023-12-04T08:41:04;34.40;;;19.77;;
58412;SDS011;44209;52.952;6.790;2023-12-04T08:43:30;21.67;;;13.57;;
58412;SDS011;44209;52.952;6.790;2023-12-04T08:45:56;23.90;;;14.10;;
58412;SDS011;44209;52.952;6.790;2023-12-04T08:48:22;20.67;;;13.13;;
58412;SDS011;44209;52.952;6.790;2023-12-04T08:50:47;22.00;;;13.90;;
58412;SDS011;44209;52.952;6.790;2023-12-04T08:53:13;20.07;;;13.10;;
58412;SDS011;44209;52.952;6.790;2023-12-04T08:55:39;20.47;;;12.83;;
58412;SDS011;44209;52.952;6.790;2023-12-04T08:58:08;23.00;;;14.43;;
58412;SDS011;44209;52.952;6.790;2023-12-04T09:00:35;22.27;;;14.50;;
58412;SDS011;44209;52.952;6.790;2023-12-04T09:03:02;21.03;;;13.10;;
58412;SDS011;44209;52.952;6.790;2023-12-04T09:05:28;21.60;;;14.33;;
58412;SDS011;44209;52.952;6.790;2023-12-04T09:07:54;21.30;;;13.20;;
58412;SDS011;44209;52.952;6.790;2023-12-04T09:10:19;19.63;;;13.00;;
58412;SDS011;44209;52.952;6.790;2023-12-04T09:12:45;20.63;;;12.87;;
58412;SDS011;44209;52.952;6.790;2023-12-04T09:15:11;21.20;;;13.63;;
58412;SDS011;44209;52.952;6.790;2023-12-04T09:17:36;18.27;;;12.67;;
58412;SDS011;44209;52.952;6.790;2023-12-04T09:20:02;23.10;;;15.47;;
58412;SDS011;44209;52.952;6.790;2023-12-04T09:22:30;22.00;;;12.90;;
58412;SDS011;44209;52.952;6.790;2023-12-04T09:24:56;21.73;;;14.43;;
58412;SDS011;44209;52.952;6.790;2023-12-04T09:27:22;20.20;;;13.07;;
58412;SDS011;44209;52.952;6.790;2023-12-04T09:29:48;32.07;;;17.37;;
58412;SDS011;44209;52.952;6.790;2023-12-04T09:32:13;87.73;;;37.30;;
58412;SDS011;44209;52.952;6.790;2023-12-04T09:34:39;48.90;;;28.37;;
58412;SDS011;44209;52.952;6.790;2023-12-04T09:37:05;30.47;;;18.43;;
58412;SDS011;44209;52.952;6.790;2023-12-04T09:39:31;19.93;;;13.53;;
58412;SDS011;44209;52.952;6.790;2023-12-04T09:41:56;22.87;;;16.33;;
58412;SDS011;44209;52.952;6.790;2023-12-04T09:44:23;29.57;;;21.63;;
58412;SDS011;44209;52.952;6.790;2023-12-04T09:46:51;23.23;;;16.20;;
58412;SDS011;44209;52.952;6.790;2023-12-04T09:49:17;20.53;;;15.17;;
58412;SDS011;44209;52.952;6.790;2023-12-04T09:51:43;20.00;;;14.97;;
58412;SDS011;44209;52.952;6.790;2023-12-04T09:54:10;25.10;;;19.23;;
58412;SDS011;44209;52.952;6.790;2023-12-04T09:56:36;23.43;;;16.00;;
58412;SDS011;44209;52.952;6.790;2023-12-04T09:59:03;21.47;;;14.63;;
58412;SDS011;44209;52.952;6.790;2023-12-04T10:01:31;19.37;;;13.73;;
58412;SDS011;44209;52.952;6.790;2023-12-04T10:03:57;17.07;;;12.07;;
58412;SDS011;44209;52.952;6.790;2023-12-04T10:06:27;15.43;;;11.17;;
58412;SDS011;44209;52.952;6.790;2023-12-04T10:08:54;17.50;;;12.40;;
58412;SDS011;44209;52.952;6.790;2023-12-04T10:11:23;16.50;;;11.57;;
58412;SDS011;44209;52.952;6.790;2023-12-04T10:13:50;17.60;;;12.10;;
58412;SDS011;44209;52.952;6.790;2023-12-04T10:16:37;18.03;;;11.13;;
58412;SDS011;44209;52.952;6.790;2023-12-04T10:21:51;16.63;;;11.50;;
58412;SDS011;44209;52.952;6.790;2023-12-04T10:24:32;14.47;;;10.43;;
58412;SDS011;44209;52.952;6.790;2023-12-04T10:27:01;15.23;;;11.07;;
58412;SDS011;44209;52.952;6.790;2023-12-04T10:29:45;14.37;;;9.73;;
58412;SDS011;44209;52.952;6.790;2023-12-04T10:32:12;17.20;;;11.47;;
58412;SDS011;44209;52.952;6.790;2023-12-04T10:34:40;17.03;;;10.93;;
58412;SDS011;44209;52.952;6.790;2023-12-04T10:37:07;18.13;;;11.70;;
58412;SDS011;44209;52.952;6.790;2023-12-04T10:39:48;20.40;;;13.87;;
58412;SDS011;44209;52.952;6.790;2023-12-04T10:42:28;16.03;;;11.70;;
58412;SDS011;44209;52.952;6.790;2023-12-04T10:44:57;17.95;;;11.45;;
58412;SDS011;44209;52.952;6.790;2023-12-04T10:47:24;18.47;;;12.33;;
58412;SDS011;44209;52.952;6.790;2023-12-04T10:49:51;17.80;;;11.53;;
58412;SDS011;44209;52.952;6.790;2023-12-04T10:52:17;17.60;;;12.07;;
58412;SDS011;44209;52.952;6.790;2023-12-04T10:54:47;16.67;;;11.67;;
58412;SDS011;44209;52.952;6.790;2023-12-04T10:57:13;18.70;;;11.17;;
58412;SDS011;44209;52.952;6.790;2023-12-04T10:59:46;16.80;;;10.73;;
58412;SDS011;44209;52.952;6.790;2023-12-04T11:02:13;14.47;;;10.07;;
58412;SDS011;44209;52.952;6.790;2023-12-04T11:04:47;16.47;;;10.43;;
58412;SDS011;44209;52.952;6.790;2023-12-04T11:07:15;13.43;;;9.73;;
58412;SDS011;44209;52.952;6.790;2023-12-04T11:09:43;15.30;;;10.03;;
58412;SDS011;44209;52.952;6.790;2023-12-04T11:12:11;14.77;;;10.33;;
58412;SDS011;44209;52.952;6.790;2023-12-04T11:14:44;15.75;;;10.63;;
58412;SDS011;44209;52.952;6.790;2023-12-04T11:17:14;19.50;;;13.20;;
58412;SDS011;44209;52.952;6.790;2023-12-04T11:20:02;21.50;;;13.63;;
58412;SDS011;44209;52.952;6.790;2023-12-04T11:22:34;18.13;;;11.47;;
58412;SDS011;44209;52.952;6.790;2023-12-04T11:25:04;17.07;;;11.70;;
58412;SDS011;44209;52.952;6.790;2023-12-04T11:27:32;18.30;;;12.40;;
58412;SDS011;44209;52.952;6.790;2023-12-04T11:29:59;17.77;;;11.83;;
58412;SDS011;44209;52.952;6.790;2023-12-04T11:32:28;22.93;;;14.90;;
58412;SDS011;44209;52.952;6.790;2023-12-04T11:34:55;18.63;;;12.00;;
58412;SDS011;44209;52.952;6.790;2023-12-04T11:37:21;15.87;;;11.33;;
58412;SDS011;44209;52.952;6.790;2023-12-04T11:39:51;16.87;;;11.57;;
58412;SDS011;44209;52.952;6.790;2023-12-04T11:42:19;17.97;;;11.17;;
58412;SDS011;44209;52.952;6.790;2023-12-04T11:44:48;22.47;;;14.57;;
58412;SDS011;44209;52.952;6.790;2023-12-04T11:47:14;19.27;;;12.90;;
58412;SDS011;44209;52.952;6.790;2023-12-04T11:49:41;23.30;;;14.97;;
58412;SDS011;44209;52.952;6.790;2023-12-04T11:52:07;17.93;;;12.37;;
58412;SDS011;44209;52.952;6.790;2023-12-04T11:57:25;26.20;;;16.60;;
58412;SDS011;44209;52.952;6.790;2023-12-04T12:00:07;22.20;;;14.80;;
58412;SDS011;44209;52.952;6.790;2023-12-04T12:05:21;16.67;;;11.90;;
58412;SDS011;44209;52.952;6.790;2023-12-04T12:07:48;16.33;;;11.17;;
58412;SDS011;44209;52.952;6.790;2023-12-04T12:10:14;17.50;;;12.43;;
58412;SDS011;44209;52.952;6.790;2023-12-04T12:12:44;15.30;;;10.47;;
58412;SDS011;44209;52.952;6.790;2023-12-04T12:15:12;27.70;;;15.63;;
58412;SDS011;44209;52.952;6.790;2023-12-04T12:17:38;21.83;;;13.97;;
58412;SDS011;44209;52.952;6.790;2023-12-04T12:20:09;18.63;;;12.33;;
58412;SDS011;44209;52.952;6.790;2023-12-04T12:22:36;23.83;;;14.90;;
58412;SDS011;44209;52.952;6.790;2023-12-04T12:25:07;32.70;;;19.93;;
58412;SDS011;44209;52.952;6.790;2023-12-04T12:27:33;44.27;;;24.70;;
58412;SDS011;44209;52.952;6.790;2023-12-04T12:30:00;36.47;;;20.17;;
58412;SDS011;44209;52.952;6.790;2023-12-04T12:32:26;33.20;;;19.20;;
58412;SDS011;44209;52.952;6.790;2023-12-04T12:34:55;38.20;;;21.43;;
58412;SDS011;44209;52.952;6.790;2023-12-04T12:37:21;14.27;;;10.43;;
58412;SDS011;44209;52.952;6.790;2023-12-04T12:39:47;23.80;;;14.97;;
58412;SDS011;44209;52.952;6.790;2023-12-04T12:42:20;22.87;;;14.47;;
58412;SDS011;44209;52.952;6.790;2023-12-04T12:44:47;29.10;;;16.63;;
58412;SDS011;44209;52.952;6.790;2023-12-04T12:47:16;20.40;;;13.53;;
58412;SDS011;44209;52.952;6.790;2023-12-04T12:49:43;20.73;;;12.63;;
58412;SDS011;44209;52.952;6.790;2023-12-04T12:52:09;25.53;;;15.60;;
58412;SDS011;44209;52.952;6.790;2023-12-04T12:54:39;21.43;;;13.73;;
58412;SDS011;44209;52.952;6.790;2023-12-04T12:57:06;19.30;;;11.67;;
58412;SDS011;44209;52.952;6.790;2023-12-04T12:59:32;22.17;;;13.70;;
58412;SDS011;44209;52.952;6.790;2023-12-04T13:01:59;18.67;;;12.27;;
58412;SDS011;44209;52.952;6.790;2023-12-04T13:04:25;19.80;;;13.50;;
58412;SDS011;44209;52.952;6.790;2023-12-04T13:06:58;22.53;;;14.67;;
58412;SDS011;44209;52.952;6.790;2023-12-04T13:09:24;17.37;;;11.53;;
58412;SDS011;44209;52.952;6.790;2023-12-04T13:11:49;15.33;;;11.43;;
58412;SDS011;44209;52.952;6.790;2023-12-04T13:14:16;17.03;;;11.83;;
58412;SDS011;44209;52.952;6.790;2023-12-04T13:16:42;17.27;;;11.60;;
58412;SDS011;44209;52.952;6.790;2023-12-04T13:19:08;27.73;;;16.90;;
58412;SDS011;44209;52.952;6.790;2023-12-04T13:21:34;21.73;;;13.37;;
58412;SDS011;44209;52.952;6.790;2023-12-04T13:23:59;23.33;;;14.83;;
58412;SDS011;44209;52.952;6.790;2023-12-04T13:26:25;20.30;;;14.27;;
58412;SDS011;44209;52.952;6.790;2023-12-04T13:28:51;25.00;;;16.17;;
58412;SDS011;44209;52.952;6.790;2023-12-04T13:31:16;19.20;;;13.17;;
58412;SDS011;44209;52.952;6.790;2023-12-04T13:33:42;13.97;;;9.93;;
58412;SDS011;44209;52.952;6.790;2023-12-04T13:36:11;13.87;;;10.43;;
58412;SDS011;44209;52.952;6.790;2023-12-04T13:38:36;13.00;;;9.63;;
58412;SDS011;44209;52.952;6.790;2023-12-04T13:41:02;15.23;;;10.33;;
58412;SDS011;44209;52.952;6.790;2023-12-04T13:43:54;13.95;;;10.27;;
58412;SDS011;44209;52.952;6.790;2023-12-04T13:46:20;14.23;;;10.37;;
58412;SDS011;44209;52.952;6.790;2023-12-04T13:48:46;13.73;;;10.20;;
58412;SDS011;44209;52.952;6.790;2023-12-04T13:51:12;15.03;;;10.43;;
58412;SDS011;44209;52.952;6.790;2023-12-04T13:53:39;13.83;;;10.63;;
58412;SDS011;44209;52.952;6.790;2023-12-04T13:56:13;16.03;;;11.33;;
58412;SDS011;44209;52.952;6.790;2023-12-04T13:58:57;14.27;;;11.43;;
58412;SDS011;44209;52.952;6.790;2023-12-04T14:01:23;15.83;;;10.87;;
58412;SDS011;44209;52.952;6.790;2023-12-04T14:03:54;13.90;;;10.13;;
58412;SDS011;44209;52.952;6.790;2023-12-04T14:06:26;15.60;;;10.45;;
58412;SDS011;44209;52.952;6.790;2023-12-04T14:08:56;14.83;;;11.27;;
58412;SDS011;44209;52.952;6.790;2023-12-04T14:11:22;15.10;;;10.90;;
58412;SDS011;44209;52.952;6.790;2023-12-04T14:13:49;15.17;;;11.10;;
58412;SDS011;44209;52.952;6.790;2023-12-04T14:16:14;14.83;;;11.20;;
58412;SDS011;44209;52.952;6.790;2023-12-04T14:18:41;15.80;;;11.03;;
58412;SDS011;44209;52.952;6.790;2023-12-04T14:21:10;13.60;;;10.80;;
58412;SDS011;44209;52.952;6.790;2023-12-04T14:23:35;16.00;;;11.30;;
58412;SDS011;44209;52.952;6.790;2023-12-04T14:26:01;15.63;;;11.10;;
58412;SDS011;44209;52.952;6.790;2023-12-04T14:28:27;14.60;;;11.40;;